sensor_id;sensor_type;location;lat;lon;timestamp;temperature;humidity
18103;DHT22;9178;51.120;6.192;2023-04-26T00:01:12;2.00;99.90
18103;DHT22;9178;51.120;6.192;2023-04-26T00:03:41;2.00;99.90
18103;DHT22;9178;51.120;6.192;2023-04-26T00:06:09;2.00;99.90
18103;DHT22;9178;51.120;6.192;2023-04-26T00:08:38;1.90;99.90
18103;DHT22;9178;51.120;6.192;2023-04-26T00:11:06;1.90;99.90
18103;DHT22;9178;51.120;6.192;2023-04-26T00:13:33;1.90;99.90
18103;DHT22;9178;51.120;6.192;2023-04-26T00:16:01;1.90;99.90
18103;DHT22;9178;51.120;6.192;2023-04-26T00:18:29;1.90;99.90
18103;DHT22;9178;51.120;6.192;2023-04-26T00:20:57;1.80;99.90
18103;DHT22;9178;51.120;6.192;2023-04-26T00:23:25;1.80;99.90
18103;DHT22;9178;51.120;6.192;2023-04-26T00:25:52;1.80;99.90
18103;DHT22;9178;51.120;6.192;2023-04-26T00:28:19;1.80;99.90
18103;DHT22;9178;51.120;6.192;2023-04-26T00:30:46;1.80;99.90
18103;DHT22;9178;51.120;6.192;2023-04-26T00:33:16;1.70;99.90
18103;DHT22;9178;51.120;6.192;2023-04-26T00:35:43;1.70;99.90
18103;DHT22;9178;51.120;6.192;2023-04-26T00:38:10;1.70;99.90
18103;DHT22;9178;51.120;6.192;2023-04-26T00:40:38;1.60;99.90
18103;DHT22;9178;51.120;6.192;2023-04-26T00:43:05;1.60;99.90
18103;DHT22;9178;51.120;6.192;2023-04-26T00:45:33;1.60;99.90
18103;DHT22;9178;51.120;6.192;2023-04-26T00:48:01;1.60;99.90
18103;DHT22;9178;51.120;6.192;2023-04-26T00:50:29;1.50;99.90
18103;DHT22;9178;51.120;6.192;2023-04-26T00:52:58;1.50;99.90
18103;DHT22;9178;51.120;6.192;2023-04-26T00:55:28;1.50;99.90
18103;DHT22;9178;51.120;6.192;2023-04-26T00:57:57;1.50;99.90
18103;DHT22;9178;51.120;6.192;2023-04-26T01:00:24;1.40;99.90
18103;DHT22;9178;51.120;6.192;2023-04-26T01:02:54;1.40;99.90
18103;DHT22;9178;51.120;6.192;2023-04-26T01:05:22;1.30;99.90
18103;DHT22;9178;51.120;6.192;2023-04-26T01:07:49;1.40;99.90
18103;DHT22;9178;51.120;6.192;2023-04-26T01:10:19;1.30;99.90
18103;DHT22;9178;51.120;6.192;2023-04-26T01:12:47;1.30;99.90
18103;DHT22;9178;51.120;6.192;2023-04-26T01:15:16;1.20;99.90
18103;DHT22;9178;51.120;6.192;2023-04-26T01:17:45;1.20;99.90
18103;DHT22;9178;51.120;6.192;2023-04-26T01:20:13;1.20;99.90
18103;DHT22;9178;51.120;6.192;2023-04-26T01:22:41;1.20;99.90
18103;DHT22;9178;51.120;6.192;2023-04-26T01:25:11;1.20;99.90
18103;DHT22;9178;51.120;6.192;2023-04-26T01:27:38;1.10;99.90
18103;DHT22;9178;51.120;6.192;2023-04-26T01:30:07;1.10;99.90
18103;DHT22;9178;51.120;6.192;2023-04-26T01:32:34;1.10;99.90
18103;DHT22;9178;51.120;6.192;2023-04-26T01:35:01;1.10;99.90
18103;DHT22;9178;51.120;6.192;2023-04-26T01:37:28;1.10;99.90
18103;DHT22;9178;51.120;6.192;2023-04-26T01:39:57;1.00;99.90
18103;DHT22;9178;51.120;6.192;2023-04-26T01:42:24;1.00;99.90
18103;DHT22;9178;51.120;6.192;2023-04-26T01:44:54;0.90;99.90
18103;DHT22;9178;51.120;6.192;2023-04-26T01:47:21;0.90;99.90
18103;DHT22;9178;51.120;6.192;2023-04-26T01:49:52;0.90;99.90
18103;DHT22;9178;51.120;6.192;2023-04-26T01:52:21;0.90;99.90
18103;DHT22;9178;51.120;6.192;2023-04-26T01:54:48;0.90;99.90
18103;DHT22;9178;51.120;6.192;2023-04-26T01:57:18;0.90;99.90
18103;DHT22;9178;51.120;6.192;2023-04-26T01:59:48;0.90;99.90
18103;DHT22;9178;51.120;6.192;2023-04-26T02:02:16;0.80;99.90
18103;DHT22;9178;51.120;6.192;2023-04-26T02:04:44;0.90;99.90
18103;DHT22;9178;51.120;6.192;2023-04-26T02:07:11;0.80;99.90
18103;DHT22;9178;51.120;6.192;2023-04-26T02:09:37;0.70;99.90
18103;DHT22;9178;51.120;6.192;2023-04-26T02:12:04;0.70;99.90
18103;DHT22;9178;51.120;6.192;2023-04-26T02:14:33;0.70;99.90
18103;DHT22;9178;51.120;6.192;2023-04-26T02:17:00;0.70;99.90
18103;DHT22;9178;51.120;6.192;2023-04-26T02:19:28;0.60;99.90
18103;DHT22;9178;51.120;6.192;2023-04-26T02:22:04;0.60;99.90
18103;DHT22;9178;51.120;6.192;2023-04-26T02:24:32;0.60;99.90
18103;DHT22;9178;51.120;6.192;2023-04-26T02:26:59;0.60;99.90
18103;DHT22;9178;51.120;6.192;2023-04-26T02:29:33;0.60;99.90
18103;DHT22;9178;51.120;6.192;2023-04-26T02:32:01;0.60;99.90
18103;DHT22;9178;51.120;6.192;2023-04-26T02:34:28;0.50;99.90
18103;DHT22;9178;51.120;6.192;2023-04-26T02:37:03;0.50;99.90
18103;DHT22;9178;51.120;6.192;2023-04-26T02:39:32;0.50;99.90
18103;DHT22;9178;51.120;6.192;2023-04-26T02:41:59;0.50;99.90
18103;DHT22;9178;51.120;6.192;2023-04-26T02:44:29;0.50;99.90
18103;DHT22;9178;51.120;6.192;2023-04-26T02:46:58;0.50;99.90
18103;DHT22;9178;51.120;6.192;2023-04-26T02:49:25;0.50;99.90
18103;DHT22;9178;51.120;6.192;2023-04-26T02:51:52;0.40;99.90
18103;DHT22;9178;51.120;6.192;2023-04-26T02:54:19;0.40;99.90
18103;DHT22;9178;51.120;6.192;2023-04-26T02:56:46;0.40;99.90
18103;DHT22;9178;51.120;6.192;2023-04-26T02:59:13;0.40;99.90
18103;DHT22;9178;51.120;6.192;2023-04-26T03:01:40;0.40;99.90
18103;DHT22;9178;51.120;6.192;2023-04-26T03:04:09;0.40;99.90
18103;DHT22;9178;51.120;6.192;2023-04-26T03:06:36;0.30;99.90
18103;DHT22;9178;51.120;6.192;2023-04-26T03:09:03;0.30;99.90
18103;DHT22;9178;51.120;6.192;2023-04-26T03:11:30;0.30;99.90
18103;DHT22;9178;51.120;6.192;2023-04-26T03:13:57;0.30;99.90
18103;DHT22;9178;51.120;6.192;2023-04-26T03:16:26;0.30;99.90
18103;DHT22;9178;51.120;6.192;2023-04-26T03:18:53;0.20;99.90
18103;DHT22;9178;51.120;6.192;2023-04-26T03:21:22;0.20;99.90
18103;DHT22;9178;51.120;6.192;2023-04-26T03:23:48;0.20;99.90
18103;DHT22;9178;51.120;6.192;2023-04-26T03:26:15;0.20;99.90
18103;DHT22;9178;51.120;6.192;2023-04-26T03:28:42;0.20;99.90
18103;DHT22;9178;51.120;6.192;2023-04-26T03:31:09;0.20;99.90
18103;DHT22;9178;51.120;6.192;2023-04-26T03:33:36;0.20;99.90
18103;DHT22;9178;51.120;6.192;2023-04-26T03:36:04;0.10;99.90
18103;DHT22;9178;51.120;6.192;2023-04-26T03:38:32;0.10;99.90
18103;DHT22;9178;51.120;6.192;2023-04-26T03:40:59;0.10;99.90
18103;DHT22;9178;51.120;6.192;2023-04-26T03:43:26;0.10;99.90
18103;DHT22;9178;51.120;6.192;2023-04-26T03:45:54;0.10;99.90
18103;DHT22;9178;51.120;6.192;2023-04-26T03:48:21;0.10;99.90
18103;DHT22;9178;51.120;6.192;2023-04-26T03:50:48;0.10;99.90
18103;DHT22;9178;51.120;6.192;2023-04-26T03:53:15;0.00;99.90
18103;DHT22;9178;51.120;6.192;2023-04-26T03:55:43;0.00;99.90
18103;DHT22;9178;51.120;6.192;2023-04-26T03:58:11;0.00;99.90
18103;DHT22;9178;51.120;6.192;2023-04-26T04:00:38;0.00;99.90
18103;DHT22;9178;51.120;6.192;2023-04-26T04:03:05;0.00;99.90
18103;DHT22;9178;51.120;6.192;2023-04-26T04:05:33;0.00;99.90
18103;DHT22;9178;51.120;6.192;2023-04-26T04:08:03;0.00;99.90
18103;DHT22;9178;51.120;6.192;2023-04-26T04:10:30;0.00;99.90
18103;DHT22;9178;51.120;6.192;2023-04-26T04:12:58;0.00;99.90
18103;DHT22;9178;51.120;6.192;2023-04-26T04:15:25;-0.10;99.90
18103;DHT22;9178;51.120;6.192;2023-04-26T04:17:52;0.00;99.90
18103;DHT22;9178;51.120;6.192;2023-04-26T04:20:19;-0.10;99.90
18103;DHT22;9178;51.120;6.192;2023-04-26T04:22:47;-0.10;99.90
18103;DHT22;9178;51.120;6.192;2023-04-26T04:25:14;0.00;99.90
18103;DHT22;9178;51.120;6.192;2023-04-26T04:27:41;0.00;99.90
18103;DHT22;9178;51.120;6.192;2023-04-26T04:30:11;0.00;99.90
18103;DHT22;9178;51.120;6.192;2023-04-26T04:32:39;0.00;99.90
18103;DHT22;9178;51.120;6.192;2023-04-26T04:35:09;0.00;99.90
18103;DHT22;9178;51.120;6.192;2023-04-26T04:37:36;0.00;99.90
18103;DHT22;9178;51.120;6.192;2023-04-26T04:40:04;0.00;99.90
18103;DHT22;9178;51.120;6.192;2023-04-26T04:42:34;0.10;99.90
18103;DHT22;9178;51.120;6.192;2023-04-26T04:45:05;0.10;99.90
18103;DHT22;9178;51.120;6.192;2023-04-26T04:47:34;0.10;99.90
18103;DHT22;9178;51.120;6.192;2023-04-26T04:50:03;0.10;99.90
18103;DHT22;9178;51.120;6.192;2023-04-26T04:52:30;0.20;99.90
18103;DHT22;9178;51.120;6.192;2023-04-26T04:54:57;0.20;99.90
18103;DHT22;9178;51.120;6.192;2023-04-26T04:57:25;0.30;99.90
18103;DHT22;9178;51.120;6.192;2023-04-26T04:59:52;0.30;99.90
18103;DHT22;9178;51.120;6.192;2023-04-26T05:02:20;0.40;99.90
18103;DHT22;9178;51.120;6.192;2023-04-26T05:04:48;0.50;99.90
18103;DHT22;9178;51.120;6.192;2023-04-26T05:07:15;0.50;99.90
18103;DHT22;9178;51.120;6.192;2023-04-26T05:09:43;0.50;99.90
18103;DHT22;9178;51.120;6.192;2023-04-26T05:12:10;0.60;99.90
18103;DHT22;9178;51.120;6.192;2023-04-26T05:14:37;0.70;99.90
18103;DHT22;9178;51.120;6.192;2023-04-26T05:17:05;0.70;99.90
18103;DHT22;9178;51.120;6.192;2023-04-26T05:19:32;0.80;99.90
18103;DHT22;9178;51.120;6.192;2023-04-26T05:22:03;0.80;99.90
18103;DHT22;9178;51.120;6.192;2023-04-26T05:24:43;0.90;99.90
18103;DHT22;9178;51.120;6.192;2023-04-26T05:27:10;1.00;99.90
18103;DHT22;9178;51.120;6.192;2023-04-26T05:29:37;1.10;99.90
18103;DHT22;9178;51.120;6.192;2023-04-26T05:32:05;1.20;99.90
18103;DHT22;9178;51.120;6.192;2023-04-26T05:34:32;1.20;99.90
18103;DHT22;9178;51.120;6.192;2023-04-26T05:37:00;1.30;99.90
18103;DHT22;9178;51.120;6.192;2023-04-26T05:39:30;1.40;99.90
18103;DHT22;9178;51.120;6.192;2023-04-26T05:41:57;1.50;99.90
18103;DHT22;9178;51.120;6.192;2023-04-26T05:44:24;1.60;99.90
18103;DHT22;9178;51.120;6.192;2023-04-26T05:46:51;1.70;99.90
18103;DHT22;9178;51.120;6.192;2023-04-26T05:49:18;1.80;99.90
18103;DHT22;9178;51.120;6.192;2023-04-26T05:51:45;1.80;99.90
18103;DHT22;9178;51.120;6.192;2023-04-26T05:54:14;2.00;99.90
18103;DHT22;9178;51.120;6.192;2023-04-26T05:56:41;2.10;99.90
18103;DHT22;9178;51.120;6.192;2023-04-26T05:59:08;2.20;99.90
18103;DHT22;9178;51.120;6.192;2023-04-26T06:01:36;2.30;99.90
18103;DHT22;9178;51.120;6.192;2023-04-26T06:04:04;2.50;99.90
18103;DHT22;9178;51.120;6.192;2023-04-26T06:06:33;2.60;99.90
18103;DHT22;9178;51.120;6.192;2023-04-26T06:09:02;2.70;99.90
18103;DHT22;9178;51.120;6.192;2023-04-26T06:11:31;2.90;99.90
18103;DHT22;9178;51.120;6.192;2023-04-26T06:14:00;3.10;99.90
18103;DHT22;9178;51.120;6.192;2023-04-26T06:16:27;3.30;99.90
18103;DHT22;9178;51.120;6.192;2023-04-26T06:18:55;3.40;99.90
18103;DHT22;9178;51.120;6.192;2023-04-26T06:21:22;3.60;99.90
18103;DHT22;9178;51.120;6.192;2023-04-26T06:23:50;3.80;99.90
18103;DHT22;9178;51.120;6.192;2023-04-26T06:26:17;3.90;99.90
18103;DHT22;9178;51.120;6.192;2023-04-26T06:28:45;4.10;99.90
18103;DHT22;9178;51.120;6.192;2023-04-26T06:31:12;4.30;99.90
18103;DHT22;9178;51.120;6.192;2023-04-26T06:33:39;4.40;99.90
18103;DHT22;9178;51.120;6.192;2023-04-26T06:36:10;4.60;99.90
18103;DHT22;9178;51.120;6.192;2023-04-26T06:38:37;4.60;99.90
18103;DHT22;9178;51.120;6.192;2023-04-26T06:41:04;4.80;99.90
18103;DHT22;9178;51.120;6.192;2023-04-26T06:43:32;4.90;99.90
18103;DHT22;9178;51.120;6.192;2023-04-26T06:46:01;5.00;99.90
18103;DHT22;9178;51.120;6.192;2023-04-26T06:48:28;5.10;99.90
18103;DHT22;9178;51.120;6.192;2023-04-26T06:51:01;5.20;99.90
18103;DHT22;9178;51.120;6.192;2023-04-26T06:53:30;5.30;99.90
18103;DHT22;9178;51.120;6.192;2023-04-26T06:55:57;5.40;99.90
18103;DHT22;9178;51.120;6.192;2023-04-26T06:58:24;5.60;99.90
18103;DHT22;9178;51.120;6.192;2023-04-26T07:00:51;5.80;99.90
18103;DHT22;9178;51.120;6.192;2023-04-26T07:03:28;5.90;99.90
18103;DHT22;9178;51.120;6.192;2023-04-26T07:05:58;6.00;99.90
18103;DHT22;9178;51.120;6.192;2023-04-26T07:08:25;6.00;99.90
18103;DHT22;9178;51.120;6.192;2023-04-26T07:10:52;6.10;99.90
18103;DHT22;9178;51.120;6.192;2023-04-26T07:13:19;6.20;99.90
18103;DHT22;9178;51.120;6.192;2023-04-26T07:15:46;6.30;99.90
18103;DHT22;9178;51.120;6.192;2023-04-26T07:18:13;6.40;99.90
18103;DHT22;9178;51.120;6.192;2023-04-26T07:20:42;6.50;99.90
18103;DHT22;9178;51.120;6.192;2023-04-26T07:23:09;6.70;99.90
18103;DHT22;9178;51.120;6.192;2023-04-26T07:25:36;6.70;99.90
18103;DHT22;9178;51.120;6.192;2023-04-26T07:28:06;6.90;99.90
18103;DHT22;9178;51.120;6.192;2023-04-26T07:30:39;7.00;99.90
18103;DHT22;9178;51.120;6.192;2023-04-26T07:33:06;7.00;99.90
18103;DHT22;9178;51.120;6.192;2023-04-26T07:35:34;7.10;99.90
18103;DHT22;9178;51.120;6.192;2023-04-26T07:38:03;7.10;99.90
18103;DHT22;9178;51.120;6.192;2023-04-26T07:40:31;7.20;99.90
18103;DHT22;9178;51.120;6.192;2023-04-26T07:42:59;7.20;99.90
18103;DHT22;9178;51.120;6.192;2023-04-26T07:45:26;7.50;99.90
18103;DHT22;9178;51.120;6.192;2023-04-26T07:47:53;7.80;99.90
18103;DHT22;9178;51.120;6.192;2023-04-26T07:50:20;7.90;99.90
18103;DHT22;9178;51.120;6.192;2023-04-26T07:52:50;7.90;99.90
18103;DHT22;9178;51.120;6.192;2023-04-26T07:55:19;7.90;99.90
18103;DHT22;9178;51.120;6.192;2023-04-26T07:57:50;7.90;99.90
18103;DHT22;9178;51.120;6.192;2023-04-26T08:00:18;8.10;99.90
18103;DHT22;9178;51.120;6.192;2023-04-26T08:02:47;8.30;99.90
18103;DHT22;9178;51.120;6.192;2023-04-26T08:05:15;8.50;99.90
18103;DHT22;9178;51.120;6.192;2023-04-26T08:07:48;8.40;99.90
18103;DHT22;9178;51.120;6.192;2023-04-26T08:10:15;8.40;99.90
18103;DHT22;9178;51.120;6.192;2023-04-26T08:12:43;8.50;99.90
18103;DHT22;9178;51.120;6.192;2023-04-26T08:15:21;8.70;99.90
18103;DHT22;9178;51.120;6.192;2023-04-26T08:17:48;8.90;99.90
18103;DHT22;9178;51.120;6.192;2023-04-26T08:20:18;9.10;99.90
18103;DHT22;9178;51.120;6.192;2023-04-26T08:22:45;9.20;99.90
18103;DHT22;9178;51.120;6.192;2023-04-26T08:25:12;9.40;99.90
18103;DHT22;9178;51.120;6.192;2023-04-26T08:27:39;9.40;99.90
18103;DHT22;9178;51.120;6.192;2023-04-26T08:30:11;9.40;99.90
18103;DHT22;9178;51.120;6.192;2023-04-26T08:32:41;9.50;99.90
18103;DHT22;9178;51.120;6.192;2023-04-26T08:35:12;9.90;99.90
18103;DHT22;9178;51.120;6.192;2023-04-26T08:37:39;10.20;99.90
18103;DHT22;9178;51.120;6.192;2023-04-26T08:40:09;10.30;99.90
18103;DHT22;9178;51.120;6.192;2023-04-26T08:42:42;10.20;99.90
18103;DHT22;9178;51.120;6.192;2023-04-26T08:45:10;10.60;99.90
18103;DHT22;9178;51.120;6.192;2023-04-26T08:47:42;10.40;99.90
18103;DHT22;9178;51.120;6.192;2023-04-26T08:50:11;10.30;99.90
18103;DHT22;9178;51.120;6.192;2023-04-26T08:52:40;10.10;99.90
18103;DHT22;9178;51.120;6.192;2023-04-26T08:55:08;10.00;99.90
18103;DHT22;9178;51.120;6.192;2023-04-26T08:57:36;10.30;99.90
18103;DHT22;9178;51.120;6.192;2023-04-26T09:00:07;10.30;99.90
18103;DHT22;9178;51.120;6.192;2023-04-26T09:02:39;10.40;99.90
18103;DHT22;9178;51.120;6.192;2023-04-26T09:05:08;10.60;99.90
18103;DHT22;9178;51.120;6.192;2023-04-26T09:07:39;10.50;99.90
18103;DHT22;9178;51.120;6.192;2023-04-26T09:10:07;10.70;99.90
18103;DHT22;9178;51.120;6.192;2023-04-26T09:12:34;10.60;99.90
18103;DHT22;9178;51.120;6.192;2023-04-26T09:15:02;10.80;99.90
18103;DHT22;9178;51.120;6.192;2023-04-26T09:17:30;10.90;99.90
18103;DHT22;9178;51.120;6.192;2023-04-26T09:19:59;11.30;99.90
18103;DHT22;9178;51.120;6.192;2023-04-26T09:22:33;11.30;99.90
18103;DHT22;9178;51.120;6.192;2023-04-26T09:25:01;11.30;99.90
18103;DHT22;9178;51.120;6.192;2023-04-26T09:27:34;11.40;99.90
18103;DHT22;9178;51.120;6.192;2023-04-26T09:30:07;11.40;99.90
18103;DHT22;9178;51.120;6.192;2023-04-26T09:32:49;11.50;99.90
18103;DHT22;9178;51.120;6.192;2023-04-26T09:35:30;11.70;99.90
18103;DHT22;9178;51.120;6.192;2023-04-26T09:37:58;11.80;99.90
18103;DHT22;9178;51.120;6.192;2023-04-26T09:40:28;12.10;99.90
18103;DHT22;9178;51.120;6.192;2023-04-26T09:42:56;12.50;99.90
18103;DHT22;9178;51.120;6.192;2023-04-26T09:45:24;12.90;99.90
18103;DHT22;9178;51.120;6.192;2023-04-26T09:47:51;13.40;99.90
18103;DHT22;9178;51.120;6.192;2023-04-26T09:50:27;13.50;99.90
18103;DHT22;9178;51.120;6.192;2023-04-26T09:52:55;13.50;99.90
18103;DHT22;9178;51.120;6.192;2023-04-26T09:55:28;13.30;99.90
18103;DHT22;9178;51.120;6.192;2023-04-26T09:57:56;12.80;99.90
18103;DHT22;9178;51.120;6.192;2023-04-26T10:00:25;13.00;99.90
18103;DHT22;9178;51.120;6.192;2023-04-26T10:02:53;13.40;99.90
18103;DHT22;9178;51.120;6.192;2023-04-26T10:05:21;13.60;99.90
18103;DHT22;9178;51.120;6.192;2023-04-26T10:07:50;14.00;99.80
18103;DHT22;9178;51.120;6.192;2023-04-26T10:10:18;14.20;99.90
18103;DHT22;9178;51.120;6.192;2023-04-26T10:12:46;14.20;99.40
18103;DHT22;9178;51.120;6.192;2023-04-26T10:15:14;14.10;99.90
18103;DHT22;9178;51.120;6.192;2023-04-26T10:17:41;14.40;99.90
18103;DHT22;9178;51.120;6.192;2023-04-26T10:20:11;14.60;97.20
18103;DHT22;9178;51.120;6.192;2023-04-26T10:22:45;14.10;95.30
18103;DHT22;9178;51.120;6.192;2023-04-26T10:25:17;14.00;96.20
18103;DHT22;9178;51.120;6.192;2023-04-26T10:27:51;14.60;99.90
18103;DHT22;9178;51.120;6.192;2023-04-26T10:30:21;15.30;95.30
18103;DHT22;9178;51.120;6.192;2023-04-26T10:33:10;15.40;97.60
18103;DHT22;9178;51.120;6.192;2023-04-26T10:36:03;15.50;96.60
18103;DHT22;9178;51.120;6.192;2023-04-26T10:38:30;15.60;93.40
18103;DHT22;9178;51.120;6.192;2023-04-26T10:43:57;15.20;93.40
18103;DHT22;9178;51.120;6.192;2023-04-26T10:46:33;15.10;97.20
18103;DHT22;9178;51.120;6.192;2023-04-26T10:49:12;15.30;94.00
18103;DHT22;9178;51.120;6.192;2023-04-26T10:52:07;14.90;92.10
18103;DHT22;9178;51.120;6.192;2023-04-26T10:57:46;14.70;96.30
18103;DHT22;9178;51.120;6.192;2023-04-26T11:00:19;14.80;93.10
18103;DHT22;9178;51.120;6.192;2023-04-26T11:02:53;14.70;94.40
18103;DHT22;9178;51.120;6.192;2023-04-26T11:05:36;14.90;91.60
18103;DHT22;9178;51.120;6.192;2023-04-26T11:08:06;14.60;89.30
18103;DHT22;9178;51.120;6.192;2023-04-26T11:10:37;14.30;91.20
18103;DHT22;9178;51.120;6.192;2023-04-26T11:13:05;14.20;91.60
18103;DHT22;9178;51.120;6.192;2023-04-26T11:15:33;14.30;93.80
18103;DHT22;9178;51.120;6.192;2023-04-26T11:18:02;14.40;91.80
18103;DHT22;9178;51.120;6.192;2023-04-26T11:20:29;14.50;95.10
18103;DHT22;9178;51.120;6.192;2023-04-26T11:22:57;14.80;90.90
18103;DHT22;9178;51.120;6.192;2023-04-26T11:25:24;14.80;90.60
18103;DHT22;9178;51.120;6.192;2023-04-26T11:27:58;14.60;90.90
18103;DHT22;9178;51.120;6.192;2023-04-26T11:30:27;14.70;93.20
18103;DHT22;9178;51.120;6.192;2023-04-26T11:32:54;15.00;93.70
18103;DHT22;9178;51.120;6.192;2023-04-26T11:35:21;15.10;92.20
18103;DHT22;9178;51.120;6.192;2023-04-26T11:37:50;15.00;93.10
18103;DHT22;9178;51.120;6.192;2023-04-26T11:40:17;15.30;95.00
18103;DHT22;9178;51.120;6.192;2023-04-26T11:42:46;15.50;92.20
18103;DHT22;9178;51.120;6.192;2023-04-26T11:45:18;15.30;92.00
18103;DHT22;9178;51.120;6.192;2023-04-26T11:47:46;15.10;92.80
18103;DHT22;9178;51.120;6.192;2023-04-26T11:50:14;15.30;93.60
18103;DHT22;9178;51.120;6.192;2023-04-26T11:52:42;15.20;87.70
18103;DHT22;9178;51.120;6.192;2023-04-26T11:55:09;14.80;92.00
18103;DHT22;9178;51.120;6.192;2023-04-26T11:57:36;15.00;92.50
18103;DHT22;9178;51.120;6.192;2023-04-26T12:00:13;15.10;94.00
18103;DHT22;9178;51.120;6.192;2023-04-26T12:02:45;15.10;85.50
18103;DHT22;9178;51.120;6.192;2023-04-26T12:05:20;14.20;88.20
18103;DHT22;9178;51.120;6.192;2023-04-26T12:07:51;14.00;93.20
18103;DHT22;9178;51.120;6.192;2023-04-26T12:10:22;14.30;92.50
18103;DHT22;9178;51.120;6.192;2023-04-26T12:12:51;14.90;92.40
18103;DHT22;9178;51.120;6.192;2023-04-26T12:15:22;15.20;91.60
18103;DHT22;9178;51.120;6.192;2023-04-26T12:17:55;15.50;92.20
18103;DHT22;9178;51.120;6.192;2023-04-26T12:20:26;15.20;91.30
18103;DHT22;9178;51.120;6.192;2023-04-26T12:22:58;15.20;90.80
18103;DHT22;9178;51.120;6.192;2023-04-26T12:25:25;15.10;87.20
18103;DHT22;9178;51.120;6.192;2023-04-26T12:27:53;14.60;87.70
18103;DHT22;9178;51.120;6.192;2023-04-26T12:30:22;14.50;92.30
18103;DHT22;9178;51.120;6.192;2023-04-26T12:32:50;15.00;90.90
18103;DHT22;9178;51.120;6.192;2023-04-26T12:35:19;15.50;93.10
18103;DHT22;9178;51.120;6.192;2023-04-26T12:37:46;16.20;89.60
18103;DHT22;9178;51.120;6.192;2023-04-26T12:40:14;16.40;83.40
18103;DHT22;9178;51.120;6.192;2023-04-26T12:42:45;16.30;87.00
18103;DHT22;9178;51.120;6.192;2023-04-26T12:45:12;16.40;88.50
18103;DHT22;9178;51.120;6.192;2023-04-26T12:47:41;16.10;81.90
18103;DHT22;9178;51.120;6.192;2023-04-26T12:50:09;15.70;87.50
18103;DHT22;9178;51.120;6.192;2023-04-26T12:52:47;15.70;85.80
18103;DHT22;9178;51.120;6.192;2023-04-26T12:55:14;15.70;90.60
18103;DHT22;9178;51.120;6.192;2023-04-26T12:57:43;15.70;90.20
18103;DHT22;9178;51.120;6.192;2023-04-26T13:00:13;16.70;91.30
18103;DHT22;9178;51.120;6.192;2023-04-26T13:02:40;17.40;86.10
18103;DHT22;9178;51.120;6.192;2023-04-26T13:05:08;17.20;89.10
18103;DHT22;9178;51.120;6.192;2023-04-26T13:07:47;17.20;90.70
18103;DHT22;9178;51.120;6.192;2023-04-26T13:10:17;17.30;88.40
18103;DHT22;9178;51.120;6.192;2023-04-26T13:12:44;17.30;86.10
18103;DHT22;9178;51.120;6.192;2023-04-26T13:15:11;17.00;86.60
18103;DHT22;9178;51.120;6.192;2023-04-26T13:17:38;16.70;83.20
18103;DHT22;9178;51.120;6.192;2023-04-26T13:20:08;16.20;84.00
18103;DHT22;9178;51.120;6.192;2023-04-26T13:22:35;15.90;87.70
18103;DHT22;9178;51.120;6.192;2023-04-26T13:25:11;16.00;88.90
18103;DHT22;9178;51.120;6.192;2023-04-26T13:27:41;16.20;87.30
18103;DHT22;9178;51.120;6.192;2023-04-26T13:30:09;16.60;83.90
18103;DHT22;9178;51.120;6.192;2023-04-26T13:32:36;16.50;89.50
18103;DHT22;9178;51.120;6.192;2023-04-26T13:35:04;17.00;90.70
18103;DHT22;9178;51.120;6.192;2023-04-26T13:37:31;17.40;89.60
18103;DHT22;9178;51.120;6.192;2023-04-26T13:39:59;17.50;83.30
18103;DHT22;9178;51.120;6.192;2023-04-26T13:42:27;16.80;82.10
18103;DHT22;9178;51.120;6.192;2023-04-26T13:44:55;16.40;86.60
18103;DHT22;9178;51.120;6.192;2023-04-26T13:47:22;16.60;85.80
18103;DHT22;9178;51.120;6.192;2023-04-26T13:49:49;16.70;87.60
18103;DHT22;9178;51.120;6.192;2023-04-26T13:52:16;16.60;83.40
18103;DHT22;9178;51.120;6.192;2023-04-26T13:54:43;16.30;84.80
18103;DHT22;9178;51.120;6.192;2023-04-26T13:57:10;16.00;83.70
18103;DHT22;9178;51.120;6.192;2023-04-26T13:59:37;16.00;84.80
18103;DHT22;9178;51.120;6.192;2023-04-26T14:02:06;15.80;82.20
18103;DHT22;9178;51.120;6.192;2023-04-26T14:04:33;15.70;86.40
18103;DHT22;9178;51.120;6.192;2023-04-26T14:07:00;15.80;89.50
18103;DHT22;9178;51.120;6.192;2023-04-26T14:09:27;16.00;88.50
18103;DHT22;9178;51.120;6.192;2023-04-26T14:11:54;15.90;80.80
18103;DHT22;9178;51.120;6.192;2023-04-26T14:14:21;15.60;85.80
18103;DHT22;9178;51.120;6.192;2023-04-26T14:16:48;16.00;85.00
18103;DHT22;9178;51.120;6.192;2023-04-26T14:19:17;16.30;87.50
18103;DHT22;9178;51.120;6.192;2023-04-26T14:21:44;16.60;84.70
18103;DHT22;9178;51.120;6.192;2023-04-26T14:24:11;16.90;80.00
18103;DHT22;9178;51.120;6.192;2023-04-26T14:26:38;16.90;81.50
18103;DHT22;9178;51.120;6.192;2023-04-26T14:29:05;16.90;84.60
18103;DHT22;9178;51.120;6.192;2023-04-26T14:31:32;17.10;81.10
18103;DHT22;9178;51.120;6.192;2023-04-26T14:33:59;17.30;83.40
18103;DHT22;9178;51.120;6.192;2023-04-26T14:36:27;17.50;81.30
18103;DHT22;9178;51.120;6.192;2023-04-26T14:38:54;17.70;83.40
18103;DHT22;9178;51.120;6.192;2023-04-26T14:41:21;18.00;81.40
18103;DHT22;9178;51.120;6.192;2023-04-26T14:43:48;18.10;80.70
18103;DHT22;9178;51.120;6.192;2023-04-26T14:46:22;18.10;80.00
18103;DHT22;9178;51.120;6.192;2023-04-26T14:48:48;18.20;79.80
18103;DHT22;9178;51.120;6.192;2023-04-26T14:51:16;18.40;82.80
18103;DHT22;9178;51.120;6.192;2023-04-26T14:53:44;18.40;80.20
18103;DHT22;9178;51.120;6.192;2023-04-26T14:56:11;18.10;80.90
18103;DHT22;9178;51.120;6.192;2023-04-26T14:58:39;17.90;80.60
18103;DHT22;9178;51.120;6.192;2023-04-26T15:01:06;17.90;82.20
18103;DHT22;9178;51.120;6.192;2023-04-26T15:03:33;18.00;78.70
18103;DHT22;9178;51.120;6.192;2023-04-26T15:06:00;18.30;84.30
18103;DHT22;9178;51.120;6.192;2023-04-26T15:08:27;18.60;82.50
18103;DHT22;9178;51.120;6.192;2023-04-26T15:10:56;19.10;78.80
18103;DHT22;9178;51.120;6.192;2023-04-26T15:13:23;19.20;79.50
18103;DHT22;9178;51.120;6.192;2023-04-26T15:15:51;19.10;77.70
18103;DHT22;9178;51.120;6.192;2023-04-26T15:18:18;19.10;78.00
18103;DHT22;9178;51.120;6.192;2023-04-26T15:20:45;19.30;78.80
18103;DHT22;9178;51.120;6.192;2023-04-26T15:23:15;19.30;71.60
18103;DHT22;9178;51.120;6.192;2023-04-26T15:25:42;19.10;75.70
18103;DHT22;9178;51.120;6.192;2023-04-26T15:28:10;18.70;75.90
18103;DHT22;9178;51.120;6.192;2023-04-26T15:30:37;18.90;78.00
18103;DHT22;9178;51.120;6.192;2023-04-26T15:33:04;19.10;73.10
18103;DHT22;9178;51.120;6.192;2023-04-26T15:35:32;19.30;74.70
18103;DHT22;9178;51.120;6.192;2023-04-26T15:37:59;19.30;72.70
18103;DHT22;9178;51.120;6.192;2023-04-26T15:40:28;19.30;75.40
18103;DHT22;9178;51.120;6.192;2023-04-26T15:42:55;19.50;74.90
18103;DHT22;9178;51.120;6.192;2023-04-26T15:45:24;19.50;74.70
18103;DHT22;9178;51.120;6.192;2023-04-26T15:47:50;19.80;75.30
18103;DHT22;9178;51.120;6.192;2023-04-26T15:50:17;19.90;75.50
18103;DHT22;9178;51.120;6.192;2023-04-26T15:52:44;19.50;69.80
18103;DHT22;9178;51.120;6.192;2023-04-26T15:55:11;19.00;68.80
18103;DHT22;9178;51.120;6.192;2023-04-26T15:57:40;18.70;69.00
18103;DHT22;9178;51.120;6.192;2023-04-26T16:00:08;18.80;74.70
18103;DHT22;9178;51.120;6.192;2023-04-26T16:02:40;18.50;71.60
18103;DHT22;9178;51.120;6.192;2023-04-26T16:05:11;18.60;69.40
18103;DHT22;9178;51.120;6.192;2023-04-26T16:07:40;18.70;73.60
18103;DHT22;9178;51.120;6.192;2023-04-26T16:10:10;18.80;66.40